createdAt,value
2018-04-29T00:01:48.439Z,14.10
2018-04-29T00:05:42.324Z,14.00
2018-04-29T00:09:36.319Z,13.60
2018-04-29T00:13:30.212Z,13.30
2018-04-29T00:17:23.400Z,13.30
2018-04-29T00:21:16.502Z,13.10
2018-04-29T00:25:09.681Z,12.80
2018-04-29T00:29:04.101Z,12.90
2018-04-29T00:32:57.273Z,12.90
2018-04-29T00:36:50.804Z,12.90
2018-04-29T00:40:44.020Z,12.90
2018-04-29T00:44:37.151Z,12.80
2018-04-29T00:48:30.008Z,12.70
2018-04-29T00:52:23.112Z,12.30
2018-04-29T00:56:16.206Z,12.30
2018-04-29T01:00:09.348Z,12.20
2018-04-29T01:04:02.501Z,12.20
2018-04-29T01:07:55.621Z,12.00
2018-04-29T01:11:49.491Z,11.60
2018-04-29T01:15:42.657Z,11.60
2018-04-29T01:19:35.852Z,11.60
2018-04-29T01:23:29.001Z,11.50
2018-04-29T01:27:23.023Z,11.60
2018-04-29T01:31:16.106Z,11.50
2018-04-29T01:35:09.365Z,11.50
2018-04-29T01:39:02.266Z,11.40
2018-04-29T01:42:55.870Z,11.50
2018-04-29T01:46:49.174Z,11.60
2018-04-29T01:50:42.193Z,11.50
2018-04-29T01:54:35.759Z,11.50
2018-04-29T01:58:29.034Z,11.60
2018-04-29T02:02:22.202Z,11.60
2018-04-29T02:06:19.501Z,11.40
2018-04-29T02:10:12.612Z,11.20
2018-04-29T02:14:06.519Z,11.10
2018-04-29T02:18:00.212Z,11.10
2018-04-29T02:21:53.363Z,11.40
2018-04-29T02:25:46.614Z,11.60
2018-04-29T02:29:40.640Z,11.90
2018-04-29T03:09:08.753Z,10.80
2018-04-29T03:13:01.895Z,10.90
2018-04-29T03:16:55.235Z,10.60
2018-04-29T03:20:48.608Z,10.50
2018-04-29T03:24:41.738Z,10.40
2018-04-29T03:28:34.906Z,10.30
2018-04-29T03:32:28.036Z,10.20
2018-04-29T03:36:21.941Z,10.20
2018-04-29T03:40:14.823Z,10.20
2018-04-29T03:44:08.290Z,10.20
2018-04-29T03:48:01.626Z,10.20
2018-04-29T03:51:54.791Z,10.20
2018-04-29T03:55:58.638Z,10.20
2018-04-29T03:59:57.501Z,10.20
2018-04-29T04:03:58.314Z,10.30
2018-04-29T04:07:51.923Z,10.30
2018-04-29T04:11:45.151Z,10.40
2018-04-29T04:15:38.356Z,10.50
2018-04-29T04:19:31.560Z,10.60
2018-04-29T04:23:24.691Z,10.50
2018-04-29T04:27:17.815Z,10.50
2018-04-29T04:31:11.003Z,10.50
2018-04-29T04:35:04.120Z,10.40
2018-04-29T04:38:57.038Z,10.40
2018-04-29T04:42:50.987Z,10.40
2018-04-29T04:46:45.048Z,10.50
2018-04-29T04:50:38.220Z,10.40
2018-04-29T04:54:31.348Z,10.60
2018-04-29T04:58:24.484Z,10.70
2018-04-29T05:02:18.589Z,10.80
2018-04-29T05:06:11.743Z,11.00
2018-04-29T05:10:04.887Z,11.30
2018-04-29T05:13:58.067Z,11.50
2018-04-29T05:17:51.933Z,11.90
2018-04-29T05:21:45.945Z,12.80
2018-04-29T05:25:39.104Z,12.80
2018-04-29T05:29:31.866Z,13.10
2018-04-29T05:33:24.522Z,12.90
2018-04-29T05:37:17.087Z,12.80
2018-04-29T05:41:09.757Z,12.80
2018-04-29T05:45:02.301Z,12.80
2018-04-29T05:48:56.116Z,12.80
2018-04-29T05:52:49.017Z,12.80
2018-04-29T05:56:41.666Z,12.90
2018-04-29T06:00:34.298Z,13.00
2018-04-29T06:04:27.102Z,13.20
2018-04-29T06:08:19.717Z,13.30
2018-04-29T06:12:12.740Z,13.50
2018-04-29T06:16:06.191Z,13.70
2018-04-29T06:19:59.601Z,13.90
2018-04-29T06:23:52.251Z,13.90
2018-04-29T06:27:45.037Z,14.10
2018-04-29T06:31:37.675Z,14.40
2018-04-29T06:35:30.366Z,14.70
2018-04-29T06:39:22.717Z,14.80
2018-04-29T06:43:15.456Z,14.70
2018-04-29T06:47:08.137Z,14.60
2018-04-29T06:51:00.954Z,14.50
2018-04-29T06:54:53.667Z,14.50
2018-04-29T06:58:46.312Z,14.60
2018-04-29T07:02:39.051Z,14.80
2018-04-29T07:06:31.632Z,14.80
2018-04-29T07:10:24.308Z,14.70
2018-04-29T07:14:16.991Z,14.70
2018-04-29T07:18:09.606Z,14.60
2018-04-29T07:22:03.262Z,14.40
2018-04-29T07:25:56.014Z,14.40
2018-04-29T07:29:49.889Z,14.20
2018-04-29T07:33:42.513Z,14.20
2018-04-29T07:37:34.894Z,14.00
2018-04-29T07:41:27.470Z,13.80
2018-04-29T07:45:20.122Z,13.70
2018-04-29T07:49:12.733Z,13.80
2018-04-29T07:53:06.140Z,14.30
2018-04-29T07:56:59.871Z,14.20
2018-04-29T08:00:53.372Z,15.20
2018-04-29T08:04:46.002Z,15.10
2018-04-29T08:08:39.326Z,15.40
2018-04-29T08:12:31.976Z,15.30
2018-04-29T08:16:24.926Z,15.80
2018-04-29T08:20:17.554Z,15.80
2018-04-29T08:24:10.155Z,15.60
2018-04-29T08:28:05.569Z,15.60
2018-04-29T08:31:58.180Z,15.50
2018-04-29T08:35:51.255Z,15.50
2018-04-29T08:39:45.215Z,15.90
2018-04-29T08:43:39.188Z,16.10
2018-04-29T08:47:32.329Z,16.00
2018-04-29T08:51:28.486Z,16.00
2018-04-29T08:55:21.610Z,15.80
2018-04-29T08:59:14.756Z,15.80
2018-04-29T09:03:07.938Z,15.60
2018-04-29T09:07:01.107Z,15.40
2018-04-29T09:10:54.217Z,15.20
2018-04-29T09:14:48.145Z,15.10
2018-04-29T09:18:41.535Z,15.10
2018-04-29T09:22:34.697Z,15.20
2018-04-29T09:26:27.849Z,15.60
2018-04-29T09:30:20.967Z,16.10
2018-04-29T09:34:14.886Z,16.50
2018-04-29T09:38:08.274Z,16.40
2018-04-29T09:42:01.520Z,16.80
2018-04-29T09:45:54.644Z,17.20
2018-04-29T09:49:47.809Z,17.30
2018-04-29T09:53:40.951Z,17.20
2018-04-29T09:57:36.180Z,17.20
2018-04-29T10:01:35.772Z,17.10
2018-04-29T10:05:28.965Z,17.40
2018-04-29T10:09:22.162Z,17.50
2018-04-29T10:13:15.377Z,17.70
2018-04-29T10:17:08.549Z,17.60
2018-04-29T10:21:01.752Z,17.80
2018-04-29T10:24:55.729Z,17.90
2018-04-29T10:28:49.685Z,18.00
2018-04-29T10:32:42.873Z,17.90
2018-04-29T10:36:36.786Z,18.80
2018-04-29T10:40:29.982Z,18.80
2018-04-29T10:44:23.199Z,18.60
2018-04-29T10:48:17.446Z,18.50
2018-04-29T10:52:11.495Z,18.50
2018-04-29T10:56:04.626Z,19.00
2018-04-29T10:59:57.912Z,19.30
2018-04-29T11:03:51.061Z,19.60
2018-04-29T11:07:45.089Z,19.40
2018-04-29T11:11:38.252Z,19.30
2018-04-29T11:15:31.446Z,19.40
2018-04-29T11:19:24.871Z,19.60
2018-04-29T11:23:18.220Z,19.50
2018-04-29T11:27:13.256Z,19.80
2018-04-29T11:31:06.831Z,19.80
2018-04-29T11:35:00.129Z,19.50
2018-04-29T11:38:53.302Z,19.70
2018-04-29T11:42:46.460Z,19.90
2018-04-29T11:46:39.634Z,20.10
2018-04-29T11:50:32.735Z,20.30
2018-04-29T11:54:25.845Z,20.40
2018-04-29T11:58:19.041Z,20.00
2018-04-29T12:02:12.220Z,20.30
2018-04-29T12:06:06.204Z,20.60
2018-04-29T12:09:59.416Z,20.60
2018-04-29T12:13:52.729Z,20.70
2018-04-29T12:17:45.884Z,20.80
2018-04-29T12:21:39.097Z,20.60
2018-04-29T12:25:32.329Z,20.40
2018-04-29T12:29:26.304Z,20.80
2018-04-29T12:33:19.478Z,20.70
2018-04-29T12:37:12.663Z,20.80
2018-04-29T12:41:05.827Z,20.90
2018-04-29T12:44:59.024Z,21.00
2018-04-29T12:48:52.146Z,21.20
2018-04-29T12:52:46.325Z,21.60
2018-04-29T12:56:40.768Z,21.60
2018-04-29T13:00:34.061Z,21.70
2018-04-29T13:04:27.196Z,21.80
2018-04-29T13:08:20.468Z,21.90
2018-04-29T13:12:13.652Z,22.10
2018-04-29T13:16:07.432Z,22.40
2018-04-29T13:20:01.511Z,22.70
2018-04-29T13:23:55.018Z,22.30
2018-04-29T13:27:48.210Z,21.90
2018-04-29T13:31:41.432Z,21.90
2018-04-29T13:35:34.616Z,21.70
2018-04-29T13:39:27.801Z,22.20
2018-04-29T13:43:21.131Z,22.50
2018-04-29T13:47:14.621Z,22.50
2018-04-29T13:51:09.475Z,22.40
2018-04-29T13:55:03.743Z,22.10
2018-04-29T13:58:56.909Z,22.10
2018-04-29T14:02:50.081Z,22.00
2018-04-29T14:06:43.396Z,22.10
2018-04-29T14:10:36.589Z,22.40
2018-04-29T14:14:29.801Z,22.50
2018-04-29T14:18:22.953Z,22.60
2018-04-29T14:22:16.177Z,22.50
2018-04-29T14:26:09.243Z,22.40
2018-04-29T14:30:03.270Z,23.00
2018-04-29T14:33:56.453Z,22.90
2018-04-29T14:37:49.607Z,23.10
2018-04-29T14:41:42.819Z,23.10
2018-04-29T14:45:35.940Z,23.20
2018-04-29T14:49:29.108Z,23.40
2018-04-29T14:53:22.302Z,23.90
2018-04-29T14:57:15.555Z,24.10
2018-04-29T15:01:08.802Z,24.00
2018-04-29T15:05:02.260Z,23.80
2018-04-29T15:08:55.928Z,24.00
2018-04-29T15:12:50.817Z,24.10
2018-04-29T15:16:43.989Z,24.00
2018-04-29T15:20:38.248Z,23.40
2018-04-29T15:24:32.132Z,23.30
2018-04-29T15:28:26.467Z,23.30
2018-04-29T15:32:19.595Z,23.30
2018-04-29T15:36:14.521Z,23.10
2018-04-29T15:40:07.718Z,23.10
2018-04-29T15:44:00.866Z,22.90
2018-04-29T15:47:54.057Z,22.90
2018-04-29T15:51:47.241Z,23.00
2018-04-29T15:55:40.420Z,22.90
2018-04-29T15:59:33.576Z,22.90
2018-04-29T16:03:27.289Z,22.70
2018-04-29T16:07:22.091Z,22.50
2018-04-29T16:11:16.227Z,22.40
2018-04-29T16:15:09.469Z,22.30
2018-04-29T16:19:02.711Z,22.30
2018-04-29T16:22:55.916Z,22.30
2018-04-29T16:26:49.076Z,22.20
2018-04-29T16:30:42.978Z,22.20
2018-04-29T16:34:36.115Z,22.20
2018-04-29T16:38:29.305Z,22.20
2018-04-29T16:42:22.422Z,22.20
2018-04-29T16:46:15.571Z,22.10
2018-04-29T16:50:10.562Z,22.10
2018-04-29T16:54:03.780Z,22.00
2018-04-29T16:57:57.835Z,21.90
2018-04-29T17:01:51.818Z,21.70
2018-04-29T17:05:44.927Z,21.70
2018-04-29T17:09:38.141Z,21.50
2018-04-29T17:13:31.282Z,21.40
2018-04-29T17:17:26.055Z,21.50
2018-04-29T17:21:19.159Z,21.60
2018-04-29T17:25:12.313Z,21.50
2018-04-29T17:29:05.491Z,21.20
2018-04-29T17:32:58.634Z,21.00
2018-04-29T17:36:52.527Z,20.90
2018-04-29T17:40:45.792Z,20.90
2018-04-29T17:44:39.725Z,20.80
2018-04-29T17:48:33.005Z,20.80
2018-04-29T17:52:26.109Z,20.80
2018-04-29T17:56:19.480Z,20.70
2018-04-29T18:00:13.615Z,20.60
2018-04-29T18:04:07.608Z,20.70
2018-04-29T18:08:00.708Z,20.70
2018-04-29T18:11:53.899Z,20.60
2018-04-29T18:15:47.012Z,20.50
2018-04-29T18:19:40.183Z,20.40
2018-04-29T18:23:33.438Z,20.20
2018-04-29T18:27:26.679Z,20.00
2018-04-29T18:31:19.805Z,19.90
2018-04-29T18:35:12.921Z,19.70
2018-04-29T18:39:06.179Z,19.50
2018-04-29T18:42:59.259Z,19.30
2018-04-29T18:46:52.425Z,19.20
2018-04-29T18:50:45.745Z,19.20
2018-04-29T18:54:38.832Z,19.10
2018-04-29T18:58:31.974Z,19.10
2018-04-29T19:02:25.125Z,19.10
2018-04-29T19:06:19.108Z,19.10
2018-04-29T19:10:12.311Z,19.10
2018-04-29T19:14:05.554Z,19.10
2018-04-29T19:17:59.395Z,19.00
2018-04-29T19:21:52.675Z,19.00
2018-04-29T19:25:45.833Z,19.00
2018-04-29T19:29:38.990Z,19.10
2018-04-29T19:33:32.119Z,19.10
2018-04-29T19:37:26.294Z,19.10
2018-04-29T19:41:19.416Z,19.20
2018-04-29T19:45:12.588Z,19.20
2018-04-29T19:49:05.747Z,19.10
2018-04-29T19:52:58.923Z,19.10
2018-04-29T19:56:52.084Z,19.10
2018-04-29T20:00:45.293Z,19.10
2018-04-29T20:04:40.249Z,19.00
2018-04-29T20:08:33.384Z,19.00
2018-04-29T20:12:26.502Z,18.90
2018-04-29T20:16:19.712Z,18.80
2018-04-29T20:20:12.983Z,18.80
2018-04-29T20:24:06.118Z,18.70
2018-04-29T20:27:59.211Z,18.50
2018-04-29T20:31:52.388Z,18.50
2018-04-29T20:35:45.643Z,18.50
2018-04-29T20:39:38.995Z,18.40
2018-04-29T20:43:32.869Z,18.30
2018-04-29T20:47:26.085Z,18.20
2018-04-29T20:51:19.221Z,18.30
2018-04-29T20:55:12.363Z,18.20
2018-04-29T20:59:05.660Z,18.30
2018-04-29T21:02:58.902Z,18.30
2018-04-29T21:06:52.033Z,18.30
2018-04-29T21:10:45.839Z,18.40
2018-04-29T21:14:39.669Z,18.30
2018-04-29T21:18:32.862Z,18.30
2018-04-29T21:22:26.140Z,18.20
2018-04-29T21:26:19.285Z,18.10
2018-04-29T21:30:12.503Z,18.10
2018-04-29T21:34:05.675Z,18.10
2018-04-29T21:37:59.753Z,18.20
2018-04-29T21:41:52.934Z,18.20
2018-04-29T21:45:46.102Z,18.10
2018-04-29T21:49:39.372Z,18.10
2018-04-29T21:53:32.528Z,18.10
2018-04-29T21:57:25.657Z,18.10
2018-04-29T22:01:20.215Z,18.00
2018-04-29T22:05:13.977Z,18.00
2018-04-29T22:09:07.141Z,18.10
2018-04-29T22:13:03.243Z,18.10
2018-04-29T22:16:57.259Z,18.00
2018-04-29T22:20:50.453Z,17.90
2018-04-29T22:24:43.666Z,17.90
2018-04-29T22:28:36.920Z,17.90
2018-04-29T22:32:30.030Z,17.90
2018-04-29T22:36:23.237Z,17.80
2018-04-29T22:40:17.129Z,17.90
2018-04-29T22:44:10.402Z,17.80
2018-04-29T22:48:03.571Z,17.90
2018-04-29T22:51:57.473Z,17.90
2018-04-29T22:55:50.591Z,17.90
2018-04-29T22:59:43.786Z,17.90
2018-04-29T23:03:37.135Z,17.90
2018-04-29T23:07:31.077Z,17.60
2018-04-29T23:11:24.230Z,17.60
2018-04-29T23:15:17.424Z,17.20
2018-04-29T23:19:10.531Z,16.90
2018-04-29T23:23:03.766Z,16.50
2018-04-29T23:26:56.875Z,16.10
2018-04-29T23:30:49.988Z,15.50
2018-04-29T23:34:43.116Z,14.90
2018-04-29T23:38:36.226Z,14.70
2018-04-29T23:42:29.339Z,14.40
2018-04-29T23:46:22.476Z,14.30
2018-04-29T23:50:16.382Z,14.50
2018-04-29T23:54:09.509Z,14.50
2018-04-29T23:58:03.400Z,14.20
